aviador You're here:

ZBYN Decoded Metar

TAIYUAN in CHINA
Report Time2017-07-22 18:30:00
UTC Time2017-07-22 18:49:30
Flight Rules vfr VFR
Wind100° at 6 kt
W.Decomp.*RWY 13: 5.4 kt HW 2.6 kt LCW
W.Rank100° ranks 4
Current wind is above 100° avg. (4.5)
Visibility9999 m
Phenomena:N/A
Clouds:N/A
Expected CloudBase > 2,000 ft AGL from Temp-Dew spread
CeilingNone
Temp25°C (ISA +15)
Dew Point20°C (74% RH)
QNH1010 hPa
Density Alt4,715 ft
Elevation2,556 ft
Report Wrong Elevation
Raw Report
ZBYN 221830Z 10003MPS CAVOK 25/20 Q1010 NOSIG=

Extra information for ZBYN:More info

Metar Taf Metar & Taf Last 4 Metars F.Rules Stats Wind Profile Meteogram Temp Stats Airport Information Weather charts Add Link Nearby VenuesMetar ALERT Operation Metar Decoded Social comments